createdAt,value
2024-01-24T00:02:23.255Z,7.95
2024-01-24T00:04:51.199Z,8.03
2024-01-24T00:07:19.163Z,8.07
2024-01-24T00:09:47.220Z,8.10
2024-01-24T00:12:15.315Z,8.14
2024-01-24T00:14:43.360Z,8.19
2024-01-24T00:17:11.365Z,8.21
2024-01-24T00:19:39.649Z,8.27
2024-01-24T00:22:07.680Z,8.28
2024-01-24T00:24:35.655Z,8.31
2024-01-24T00:27:03.621Z,8.31
2024-01-24T00:29:31.555Z,8.35
2024-01-24T00:31:59.500Z,8.39
2024-01-24T00:34:27.517Z,8.38
2024-01-24T00:36:55.678Z,8.42
2024-01-24T00:39:23.708Z,8.41
2024-01-24T00:41:51.674Z,8.44
2024-01-24T00:44:19.696Z,8.45
2024-01-24T00:46:47.680Z,8.47
2024-01-24T00:49:15.865Z,8.49
2024-01-24T00:51:43.989Z,8.48
2024-01-24T00:54:12.295Z,8.52
2024-01-24T00:56:40.591Z,8.53
2024-01-24T00:59:08.618Z,8.55
2024-01-24T01:01:36.607Z,8.58
2024-01-24T01:04:06.347Z,8.61
2024-01-24T01:06:34.482Z,8.62
2024-01-24T01:09:03.253Z,8.64
2024-01-24T01:11:31.335Z,8.63
2024-01-24T01:13:59.340Z,8.63
2024-01-24T01:16:27.499Z,8.61
2024-01-24T01:18:55.505Z,8.62
2024-01-24T01:21:23.559Z,8.61
2024-01-24T01:23:51.580Z,8.59
2024-01-24T01:26:19.660Z,8.58
2024-01-24T01:28:47.624Z,8.55
2024-01-24T01:31:15.586Z,8.52
2024-01-24T01:33:43.811Z,8.49
2024-01-24T01:36:18.230Z,8.49
2024-01-24T01:38:51.579Z,8.50
2024-01-24T01:41:19.736Z,8.55
2024-01-24T01:43:47.679Z,8.54
2024-01-24T01:46:24.220Z,8.56
2024-01-24T01:48:52.631Z,8.55
2024-01-24T01:51:21.402Z,8.51
2024-01-24T01:53:50.606Z,8.51
2024-01-24T01:56:21.392Z,8.45
2024-01-24T01:58:50.749Z,8.40
2024-01-24T02:01:19.894Z,8.34
2024-01-24T02:03:50.987Z,8.29
2024-01-24T02:06:19.262Z,8.20
2024-01-24T02:08:47.542Z,8.18
2024-01-24T02:11:15.458Z,8.15
2024-01-24T02:13:43.507Z,8.12
2024-01-24T02:16:12.762Z,8.10
2024-01-24T02:18:40.850Z,8.10
2024-01-24T02:21:09.006Z,8.09
2024-01-24T02:23:38.113Z,8.08
2024-01-24T02:26:06.703Z,8.12
2024-01-24T02:28:34.628Z,8.17
2024-01-24T02:31:02.558Z,8.20
2024-01-24T02:33:30.529Z,8.23
2024-01-24T02:35:58.505Z,8.29
2024-01-24T02:38:26.487Z,8.33
2024-01-24T02:40:54.421Z,8.33
2024-01-24T02:43:22.403Z,8.36
2024-01-24T02:45:50.618Z,8.41
2024-01-24T02:48:19.948Z,8.48
2024-01-24T02:50:48.151Z,8.54
2024-01-24T02:53:16.129Z,8.60
2024-01-24T02:55:44.066Z,8.66
2024-01-24T02:58:12.253Z,8.74
2024-01-24T03:00:40.586Z,8.80
2024-01-24T03:03:09.133Z,8.84
2024-01-24T03:05:37.110Z,8.88
2024-01-24T03:08:05.409Z,8.92
2024-01-24T03:10:33.357Z,8.97
2024-01-24T03:13:01.296Z,9.02
2024-01-24T03:15:29.475Z,9.07
2024-01-24T03:17:57.525Z,9.12
2024-01-24T03:20:25.518Z,9.15
2024-01-24T03:22:53.598Z,9.20
2024-01-24T03:25:21.588Z,9.26
2024-01-24T03:27:49.674Z,9.28
2024-01-24T03:30:18.031Z,9.33
2024-01-24T03:32:46.142Z,9.40
2024-01-24T03:35:14.231Z,9.40
2024-01-24T03:37:42.239Z,9.44
2024-01-24T03:40:10.755Z,9.44
2024-01-24T03:42:38.729Z,9.47
2024-01-24T03:45:07.257Z,9.48
2024-01-24T03:47:35.239Z,9.51
2024-01-24T03:50:03.176Z,9.49
2024-01-24T03:52:31.567Z,9.48
2024-01-24T03:54:59.576Z,9.51
2024-01-24T03:57:27.552Z,9.52
2024-01-24T03:59:56.424Z,9.51
2024-01-24T04:02:24.371Z,9.52
2024-01-24T04:04:52.502Z,9.54
2024-01-24T04:07:20.516Z,9.54
2024-01-24T04:09:48.628Z,9.56
2024-01-24T04:12:16.712Z,9.55
2024-01-24T04:14:44.706Z,9.56
2024-01-24T04:17:12.599Z,9.57
2024-01-24T04:19:40.654Z,9.58
2024-01-24T04:22:10.056Z,9.57
2024-01-24T04:24:38.181Z,9.59
2024-01-24T04:27:06.250Z,9.56
2024-01-24T04:29:34.206Z,9.56
2024-01-24T04:32:02.176Z,9.58
2024-01-24T04:34:30.371Z,9.56
2024-01-24T04:36:58.451Z,9.58
2024-01-24T04:39:26.492Z,9.58
2024-01-24T04:42:01.711Z,9.60
2024-01-24T04:44:36.803Z,9.61
2024-01-24T04:47:04.916Z,9.64
2024-01-24T04:49:43.807Z,9.63
2024-01-24T04:52:13.526Z,9.64
2024-01-24T04:54:44.178Z,9.62
2024-01-24T04:57:12.374Z,9.67
2024-01-24T04:59:50.145Z,9.68
2024-01-24T05:02:24.376Z,9.68
2024-01-24T05:04:52.832Z,9.71
2024-01-24T05:07:20.879Z,9.74
2024-01-24T05:09:49.219Z,9.74
2024-01-24T05:12:17.462Z,9.79
2024-01-24T05:14:45.511Z,9.86
2024-01-24T05:17:13.520Z,9.93
2024-01-24T05:19:45.048Z,9.96
2024-01-24T05:22:13.073Z,9.96
2024-01-24T05:24:41.153Z,9.99
2024-01-24T05:27:09.100Z,10.03
2024-01-24T05:29:37.156Z,10.07
2024-01-24T05:32:05.381Z,10.11
2024-01-24T05:34:33.499Z,10.12
2024-01-24T05:37:02.367Z,10.14
2024-01-24T05:39:30.487Z,10.17
2024-01-24T05:41:58.700Z,10.21
2024-01-24T05:44:26.738Z,10.27
2024-01-24T05:46:54.694Z,10.28
2024-01-24T05:49:22.861Z,10.31
2024-01-24T05:51:50.948Z,10.35
2024-01-24T05:54:19.155Z,10.40
2024-01-24T05:56:47.250Z,10.44
2024-01-24T05:59:16.026Z,10.46
2024-01-24T06:01:45.351Z,10.51
2024-01-24T06:04:13.780Z,10.56
2024-01-24T06:06:42.803Z,10.60
2024-01-24T06:09:11.013Z,10.63
2024-01-24T06:11:39.789Z,10.68
2024-01-24T06:14:07.834Z,10.68
2024-01-24T06:16:35.845Z,10.70
2024-01-24T06:19:04.114Z,10.72
2024-01-24T06:21:32.035Z,10.74
2024-01-24T06:24:00.045Z,10.74
2024-01-24T06:26:28.017Z,10.73
2024-01-24T06:28:56.015Z,10.72
2024-01-24T06:31:25.133Z,10.70
2024-01-24T06:33:53.218Z,10.68
2024-01-24T06:36:23.306Z,10.69
2024-01-24T06:38:51.289Z,10.70
2024-01-24T06:41:19.358Z,10.73
2024-01-24T06:43:47.768Z,10.74
2024-01-24T06:46:15.869Z,10.74
2024-01-24T06:48:43.933Z,10.77
2024-01-24T06:51:14.792Z,10.81
2024-01-24T06:53:42.787Z,10.85
2024-01-24T06:56:11.023Z,10.91
2024-01-24T06:58:43.195Z,10.94
2024-01-24T07:01:11.757Z,10.98
2024-01-24T07:03:40.274Z,11.02
2024-01-24T07:06:08.507Z,11.10
2024-01-24T07:08:40.090Z,11.11
2024-01-24T07:11:09.861Z,11.17
2024-01-24T07:13:39.505Z,11.24
2024-01-24T07:16:09.805Z,11.29
2024-01-24T07:18:37.867Z,11.34
2024-01-24T07:21:09.070Z,11.39
2024-01-24T07:23:36.992Z,11.43
2024-01-24T07:26:05.476Z,11.48
2024-01-24T07:28:33.750Z,11.53
2024-01-24T07:31:01.802Z,11.58
2024-01-24T07:33:30.111Z,11.61
2024-01-24T07:35:58.172Z,11.64
2024-01-24T07:38:26.151Z,11.70
2024-01-24T07:40:54.165Z,11.77
2024-01-24T07:43:22.664Z,11.82
2024-01-24T07:45:50.690Z,11.83
2024-01-24T07:48:19.312Z,11.89
2024-01-24T07:50:47.445Z,11.92
2024-01-24T07:53:15.482Z,11.96
2024-01-24T07:55:53.560Z,11.99
2024-01-24T07:58:27.362Z,12.03
2024-01-24T08:00:57.230Z,12.05
2024-01-24T08:03:25.369Z,12.30
2024-01-24T08:05:53.562Z,12.61
2024-01-24T08:08:21.799Z,12.56
2024-01-24T08:10:50.277Z,12.56
2024-01-24T08:13:18.712Z,12.53
2024-01-24T08:15:48.092Z,12.46
2024-01-24T08:18:16.917Z,12.47
2024-01-24T08:20:44.989Z,12.45
2024-01-24T08:23:14.118Z,12.42
2024-01-24T08:25:42.118Z,12.42
2024-01-24T08:28:10.670Z,12.39
2024-01-24T08:30:38.930Z,12.41
2024-01-24T08:33:07.186Z,12.41
2024-01-24T08:35:38.143Z,12.42
2024-01-24T08:38:06.258Z,12.42
2024-01-24T08:40:34.340Z,12.41
2024-01-24T08:43:02.609Z,12.45
2024-01-24T08:45:30.647Z,12.48
2024-01-24T08:47:58.850Z,12.48
2024-01-24T08:50:26.921Z,12.50
2024-01-24T08:52:55.092Z,12.53
2024-01-24T08:55:23.257Z,12.57
2024-01-24T08:57:51.947Z,12.59
2024-01-24T09:00:20.420Z,12.61
2024-01-24T09:02:49.363Z,12.63
2024-01-24T09:05:21.125Z,12.69
2024-01-24T09:07:49.398Z,12.72
2024-01-24T09:10:18.181Z,12.73
2024-01-24T09:12:46.370Z,12.72
2024-01-24T09:15:14.884Z,12.77
2024-01-24T09:17:43.061Z,12.79
2024-01-24T09:20:12.036Z,12.81
2024-01-24T09:22:40.554Z,12.86
2024-01-24T09:25:10.543Z,12.89
2024-01-24T09:27:41.787Z,12.94
2024-01-24T09:30:10.223Z,12.97
2024-01-24T09:32:38.344Z,13.01
2024-01-24T09:35:07.144Z,13.03
2024-01-24T09:37:36.217Z,13.07
2024-01-24T09:40:04.617Z,13.09
2024-01-24T09:42:40.518Z,13.12
2024-01-24T09:45:10.048Z,13.14
2024-01-24T09:47:39.761Z,13.15
2024-01-24T09:50:10.415Z,13.14
2024-01-24T09:52:38.462Z,13.15
2024-01-24T09:55:09.405Z,13.16
2024-01-24T09:57:38.479Z,13.18
2024-01-24T10:00:07.247Z,13.18
2024-01-24T10:02:35.396Z,13.23
2024-01-24T10:05:07.272Z,13.24
2024-01-24T10:07:35.417Z,13.27
2024-01-24T10:10:15.414Z,13.31
2024-01-24T10:12:46.992Z,13.34
2024-01-24T10:15:15.940Z,13.33
2024-01-24T10:17:45.258Z,13.36
2024-01-24T10:20:14.639Z,13.36
2024-01-24T10:22:45.892Z,13.37
2024-01-24T10:25:14.250Z,13.36
2024-01-24T10:27:44.451Z,13.38
2024-01-24T10:30:14.622Z,13.44
2024-01-24T10:32:48.852Z,13.45
2024-01-24T10:35:18.509Z,13.43
2024-01-24T10:37:46.913Z,13.48
2024-01-24T10:40:17.800Z,13.51
2024-01-24T10:42:47.317Z,13.52
2024-01-24T10:45:17.799Z,13.56
2024-01-24T10:47:47.466Z,13.59
2024-01-24T10:50:17.341Z,13.61
2024-01-24T10:52:45.927Z,13.60
2024-01-24T10:55:16.041Z,13.60
2024-01-24T10:57:46.124Z,13.57
2024-01-24T11:00:18.236Z,13.59
2024-01-24T11:02:46.365Z,13.56
2024-01-24T11:05:22.102Z,13.55
2024-01-24T11:08:18.977Z,13.53
2024-01-24T11:10:48.923Z,13.51
2024-01-24T11:13:21.180Z,13.47
2024-01-24T11:15:49.694Z,13.44
2024-01-24T11:18:21.912Z,13.38
2024-01-24T11:21:00.884Z,13.40
2024-01-24T11:23:35.591Z,13.38
2024-01-24T11:26:04.553Z,13.39
2024-01-24T11:28:32.588Z,13.39
2024-01-24T11:31:00.934Z,13.38
2024-01-24T11:33:29.326Z,13.36
2024-01-24T11:35:58.342Z,13.37
2024-01-24T11:38:29.354Z,13.45
2024-01-24T11:41:12.649Z,13.43
2024-01-24T11:43:45.213Z,13.41
2024-01-24T11:46:14.359Z,13.45
2024-01-24T11:48:42.948Z,13.43
2024-01-24T11:51:13.854Z,13.40
2024-01-24T11:53:41.968Z,13.39
2024-01-24T11:56:16.948Z,13.39
2024-01-24T11:58:45.455Z,13.38
2024-01-24T12:01:14.276Z,13.38
2024-01-24T12:03:50.651Z,13.40
2024-01-24T12:06:20.002Z,13.43
2024-01-24T12:08:50.505Z,13.44
2024-01-24T12:11:20.004Z,13.47
2024-01-24T12:13:48.686Z,13.48
2024-01-24T12:16:17.077Z,13.48
2024-01-24T12:18:45.630Z,13.53
2024-01-24T12:21:13.970Z,13.52
2024-01-24T12:23:48.961Z,13.51
2024-01-24T12:26:18.394Z,13.51
2024-01-24T12:28:47.433Z,13.51
2024-01-24T12:31:15.636Z,13.53
2024-01-24T12:33:44.021Z,13.49
2024-01-24T12:36:12.965Z,13.52
2024-01-24T12:38:41.945Z,13.53
2024-01-24T12:41:10.033Z,13.54
2024-01-24T12:43:38.863Z,13.54
2024-01-24T12:46:10.587Z,13.45
2024-01-24T12:48:39.817Z,13.33
2024-01-24T12:51:09.023Z,13.29
2024-01-24T12:53:37.354Z,13.24
2024-01-24T12:56:05.686Z,13.21
2024-01-24T12:58:34.122Z,13.21
2024-01-24T13:01:02.464Z,13.21
2024-01-24T13:03:30.798Z,13.21
2024-01-24T13:05:59.741Z,13.20
2024-01-24T13:08:28.519Z,13.19
2024-01-24T13:10:57.984Z,13.16
2024-01-24T13:13:26.214Z,13.22
2024-01-24T13:15:55.820Z,13.19
2024-01-24T13:18:24.336Z,13.17
2024-01-24T13:20:52.568Z,13.17
2024-01-24T13:23:20.687Z,13.17
2024-01-24T13:25:48.963Z,13.18
2024-01-24T13:28:18.586Z,13.21
2024-01-24T13:30:46.683Z,13.18
2024-01-24T13:33:14.853Z,13.19
2024-01-24T13:35:43.277Z,13.16
2024-01-24T13:38:11.658Z,13.17
2024-01-24T13:40:40.457Z,13.19
2024-01-24T13:43:09.314Z,13.23
2024-01-24T13:45:40.819Z,13.18
2024-01-24T13:48:10.409Z,13.21
2024-01-24T13:50:40.147Z,13.21
2024-01-24T13:53:08.755Z,13.22
2024-01-24T13:55:36.800Z,13.25
2024-01-24T13:58:05.963Z,13.29
2024-01-24T14:00:34.317Z,13.30
2024-01-24T14:03:02.468Z,13.32
2024-01-24T14:05:30.871Z,13.31
2024-01-24T14:07:59.013Z,13.31
2024-01-24T14:10:27.272Z,13.28
2024-01-24T14:12:55.391Z,13.26
2024-01-24T14:15:32.890Z,13.26
2024-01-24T14:18:03.815Z,13.24
2024-01-24T14:20:31.918Z,13.23
2024-01-24T14:22:59.913Z,13.21
2024-01-24T14:25:28.150Z,13.18
2024-01-24T14:27:56.827Z,13.14
2024-01-24T14:30:25.192Z,13.11
2024-01-24T14:32:53.600Z,13.06
2024-01-24T14:35:21.825Z,13.00
2024-01-24T14:37:50.016Z,12.89
2024-01-24T14:40:18.148Z,12.86
2024-01-24T14:42:46.241Z,12.81
2024-01-24T14:45:14.320Z,12.81
2024-01-24T14:47:42.320Z,12.80
2024-01-24T14:50:11.131Z,12.80
2024-01-24T14:52:39.716Z,12.77
2024-01-24T14:55:08.868Z,12.75
2024-01-24T14:59:19.062Z,12.80
2024-01-24T15:01:47.136Z,12.73
2024-01-24T15:04:15.993Z,12.75
2024-01-24T15:06:44.015Z,12.78
2024-01-24T15:09:12.855Z,12.79
2024-01-24T15:11:40.815Z,12.80
2024-01-24T15:14:08.903Z,12.80
2024-01-24T15:16:36.985Z,12.84
2024-01-24T15:19:05.910Z,12.84
2024-01-24T15:21:34.597Z,12.85
2024-01-24T15:24:03.996Z,12.86
2024-01-24T15:26:32.060Z,12.89
2024-01-24T15:29:00.200Z,12.90
2024-01-24T15:31:28.307Z,12.89
2024-01-24T15:33:56.551Z,12.90
2024-01-24T15:36:24.839Z,12.90
2024-01-24T15:38:53.228Z,12.88
2024-01-24T15:41:21.375Z,12.84
2024-01-24T15:43:49.510Z,12.81
2024-01-24T15:46:18.489Z,12.81
2024-01-24T15:48:46.798Z,12.79
2024-01-24T15:51:15.042Z,12.74
2024-01-24T15:53:42.935Z,12.73
2024-01-24T15:56:11.624Z,12.73
2024-01-24T15:58:40.163Z,12.70
2024-01-24T16:01:08.384Z,12.72
2024-01-24T16:03:37.715Z,12.68
2024-01-24T16:06:06.481Z,12.71
2024-01-24T16:08:35.976Z,12.69
2024-01-24T16:11:05.264Z,12.72
2024-01-24T16:13:33.513Z,12.74
2024-01-24T16:16:03.265Z,12.70
2024-01-24T16:18:32.161Z,12.70
2024-01-24T16:21:01.450Z,12.70
2024-01-24T16:23:29.631Z,12.70
2024-01-24T16:25:58.305Z,12.73
2024-01-24T16:28:26.329Z,12.74
2024-01-24T16:30:54.370Z,12.75
2024-01-24T16:33:22.940Z,12.77
2024-01-24T16:35:51.027Z,12.78
2024-01-24T16:38:19.592Z,12.79
2024-01-24T16:40:47.573Z,12.79
2024-01-24T16:43:15.577Z,12.82
2024-01-24T16:45:43.739Z,12.80
2024-01-24T16:48:11.900Z,12.85
2024-01-24T16:50:41.387Z,12.84
2024-01-24T16:53:10.893Z,12.87
2024-01-24T16:55:39.195Z,12.88
2024-01-24T16:58:07.271Z,12.86
2024-01-24T17:00:35.431Z,12.87
2024-01-24T17:03:03.470Z,12.87
2024-01-24T17:05:31.375Z,12.84
2024-01-24T17:07:59.837Z,12.88
2024-01-24T17:10:27.914Z,12.86
2024-01-24T17:12:56.476Z,12.86
2024-01-24T17:15:24.396Z,12.87
2024-01-24T17:17:52.600Z,12.86
2024-01-24T17:20:20.556Z,12.87
2024-01-24T17:22:48.793Z,12.87
2024-01-24T17:25:19.521Z,12.86
2024-01-24T17:27:47.578Z,12.81
2024-01-24T17:30:15.970Z,12.80
2024-01-24T17:32:44.308Z,12.84
2024-01-24T17:35:12.316Z,12.79
2024-01-24T17:37:40.482Z,12.75
2024-01-24T17:40:10.025Z,12.76
2024-01-24T17:42:38.253Z,12.75
2024-01-24T17:45:06.882Z,12.74
2024-01-24T17:47:35.508Z,12.73
2024-01-24T17:50:04.667Z,12.72
2024-01-24T17:52:32.802Z,12.71
2024-01-24T17:55:03.786Z,12.68
2024-01-24T17:57:32.230Z,12.71
2024-01-24T18:00:02.270Z,12.67
2024-01-24T18:02:30.341Z,12.65
2024-01-24T18:04:59.447Z,12.52
2024-01-24T18:07:27.605Z,12.35
2024-01-24T18:09:57.616Z,12.17
2024-01-24T18:12:25.694Z,11.98
2024-01-24T18:14:54.341Z,11.85
2024-01-24T18:17:22.282Z,11.67
2024-01-24T18:19:51.736Z,11.54
2024-01-24T18:22:19.925Z,11.45
2024-01-24T18:24:49.019Z,11.36
2024-01-24T18:27:17.006Z,11.28
2024-01-24T18:29:46.605Z,11.24
2024-01-24T18:32:15.847Z,11.17
2024-01-24T18:34:45.060Z,11.12
2024-01-24T18:37:13.257Z,11.07
2024-01-24T18:39:41.390Z,11.02
2024-01-24T18:42:10.047Z,11.01
2024-01-24T18:44:38.275Z,10.95
2024-01-24T18:47:07.831Z,10.95
2024-01-24T18:49:35.946Z,10.92
2024-01-24T18:52:04.715Z,10.93
2024-01-24T18:54:32.995Z,10.93
2024-01-24T18:57:01.119Z,10.94
2024-01-24T18:59:29.102Z,10.91
2024-01-24T19:01:57.483Z,10.91
2024-01-24T19:04:25.786Z,10.92
2024-01-24T19:06:54.042Z,10.91
2024-01-24T19:09:22.183Z,10.92
2024-01-24T19:11:50.164Z,10.91
2024-01-24T19:14:19.872Z,10.89
2024-01-24T19:16:48.361Z,10.84
2024-01-24T19:19:16.791Z,10.82
2024-01-24T19:21:48.486Z,10.81
2024-01-24T19:24:16.856Z,10.80
2024-01-24T19:26:45.459Z,10.79
2024-01-24T19:29:14.583Z,10.75
2024-01-24T19:31:42.931Z,10.71
2024-01-24T19:34:11.185Z,10.68
2024-01-24T19:36:39.834Z,10.66
2024-01-24T19:39:07.754Z,10.63
2024-01-24T19:41:35.664Z,10.63
2024-01-24T19:44:03.638Z,10.63
2024-01-24T19:46:31.645Z,10.62
2024-01-24T19:49:00.285Z,10.62
2024-01-24T19:51:28.399Z,10.63
2024-01-24T19:53:57.564Z,10.64
2024-01-24T19:56:25.944Z,10.60
2024-01-24T19:58:54.690Z,10.58
2024-01-24T20:01:22.825Z,10.57
2024-01-24T20:03:51.082Z,10.55
2024-01-24T20:06:19.605Z,10.52
2024-01-24T20:08:48.690Z,10.47
2024-01-24T20:11:18.686Z,10.46
2024-01-24T20:13:46.695Z,10.44
2024-01-24T20:16:14.841Z,10.43
2024-01-24T20:18:43.052Z,10.41
2024-01-24T20:21:11.212Z,10.38
2024-01-24T20:23:39.140Z,10.36
2024-01-24T20:26:08.104Z,10.37
2024-01-24T20:28:36.117Z,10.36
2024-01-24T20:31:04.207Z,10.35
2024-01-24T20:33:39.394Z,10.30
2024-01-24T20:36:14.227Z,10.29
2024-01-24T20:38:43.386Z,10.28
2024-01-24T20:41:12.473Z,10.28
2024-01-24T20:43:41.661Z,10.30
2024-01-24T20:46:10.962Z,10.29
2024-01-24T20:48:39.801Z,10.30
2024-01-24T20:51:08.060Z,10.31
2024-01-24T20:53:36.117Z,10.26
2024-01-24T20:56:06.410Z,10.26
2024-01-24T20:58:35.748Z,10.24
2024-01-24T21:01:05.668Z,10.24
2024-01-24T21:03:34.765Z,10.24
2024-01-24T21:06:03.115Z,10.23
2024-01-24T21:08:31.998Z,10.21
2024-01-24T21:11:03.652Z,10.21
2024-01-24T21:13:33.137Z,10.20
2024-01-24T21:16:03.280Z,10.19
2024-01-24T21:18:31.625Z,10.21
2024-01-24T21:20:59.741Z,10.19
2024-01-24T21:23:28.560Z,10.22
2024-01-24T21:25:56.614Z,10.22
2024-01-24T21:28:24.597Z,10.23
2024-01-24T21:30:52.868Z,10.23
2024-01-24T21:33:21.001Z,10.24
2024-01-24T21:35:48.981Z,10.23
2024-01-24T21:38:17.090Z,10.25
2024-01-24T21:40:45.151Z,10.28
2024-01-24T21:43:13.231Z,10.28
2024-01-24T21:45:41.180Z,10.28
2024-01-24T21:48:09.722Z,10.30
2024-01-24T21:50:37.670Z,10.32
2024-01-24T21:53:06.642Z,10.31
2024-01-24T21:55:34.711Z,10.32
2024-01-24T21:58:02.809Z,10.30
2024-01-24T22:00:30.909Z,10.28
2024-01-24T22:02:59.148Z,10.26
2024-01-24T22:05:27.166Z,10.23
2024-01-24T22:07:56.905Z,10.25
2024-01-24T22:10:25.055Z,10.21
2024-01-24T22:12:53.076Z,10.18
2024-01-24T22:15:21.039Z,10.16
2024-01-24T22:17:49.037Z,10.12
2024-01-24T22:20:17.174Z,10.10
2024-01-24T22:22:45.186Z,10.09
2024-01-24T22:25:13.311Z,10.06
2024-01-24T22:27:41.705Z,10.05
2024-01-24T22:30:10.653Z,10.02
2024-01-24T22:32:38.633Z,10.02
2024-01-24T22:35:07.273Z,9.98
2024-01-24T22:37:35.271Z,9.99
2024-01-24T22:40:03.626Z,9.96
2024-01-24T22:42:31.675Z,9.93
2024-01-24T22:44:59.695Z,9.93
2024-01-24T22:47:27.710Z,9.92
2024-01-24T22:49:55.845Z,9.94
2024-01-24T22:52:23.989Z,9.90
2024-01-24T22:54:52.937Z,9.87
2024-01-24T22:57:21.094Z,9.83
2024-01-24T22:59:49.086Z,9.83
2024-01-24T23:02:19.482Z,9.84
2024-01-24T23:04:47.849Z,9.81
2024-01-24T23:07:16.129Z,9.81
2024-01-24T23:09:44.287Z,9.75
2024-01-24T23:12:12.461Z,9.77
2024-01-24T23:14:43.693Z,9.77
2024-01-24T23:17:11.785Z,9.75
2024-01-24T23:19:39.986Z,9.75
2024-01-24T23:22:08.205Z,9.75
2024-01-24T23:24:36.256Z,9.74
2024-01-24T23:27:04.319Z,9.72
2024-01-24T23:29:32.716Z,9.69
2024-01-24T23:32:00.862Z,9.72
2024-01-24T23:34:29.000Z,9.70
2024-01-24T23:36:57.131Z,9.71
2024-01-24T23:39:26.845Z,9.68
2024-01-24T23:41:55.009Z,9.69
2024-01-24T23:44:22.913Z,9.70
2024-01-24T23:46:50.912Z,9.70
2024-01-24T23:49:19.284Z,9.69
2024-01-24T23:51:47.681Z,9.68
2024-01-24T23:54:15.992Z,9.67
2024-01-24T23:56:44.015Z,9.64
2024-01-24T23:59:12.127Z,9.60
